Huvudsida
METAR-TAF:

METAR-TAF

Flygplatser :

Murmansk, Ryssland

latitud: 68-58N, longitud: 033-03E, höjd: 51 m

Aktuellt väderrapport

Denna rapport gjordes för 39 minuter sedan, klockan 18:00 UTC
Vind 4 kt från väst/sydväst
Temperatur 10°C
Fuktighet 46%
Tryck 1007 hPa
Sikt 10 km eller mer
Inga moln under 1 500 m eller inga cumulonimbus

METAR: ULMM 301800Z 25002MPS CAVOK 10/M01 Q1007 R31/090070 NOSIG RMK QFE748

Tid: 21:39 (18:39 UTC)

Väderprognos

Denna rapport gjordes för 1 timme och 49 minuter sedan, klockan 16:50 UTC
Prognos gäller från 30 kl. 18 UTC till 31 kl. 18 UTC
Vind 6 kt från sydväst i byarna ända upp till 16 kt
Sikt 10 km eller mer
Brutna moln på en höjd av 2000 ft
Temporärt
från 31 kl. 09 UTC till 31 kl. 18 UTC
Sikt: 4000 m
Brutna moln på en höjd av 1600 ft, Cumulonimbus.
lätta regnskurar

TAF: ULMM 301650Z 3018/3118 22003G08MPS 9999 BKN020 TEMPO 3109/3118 4000 -SHRA BKN016CB

Aktuella väderrapporter och prognoser från 4000 flygplatser (METAR- och TAF-rapporter).

De tillgängliga stationerna syns som gula och röda prickar på kartan.

För musen över prickarna för att se namnen på stationerna.

Klicka sedan för att få väderrapporter och prognoser.

För att ändra kartan: Klicka på de gröna knapparna med ett svart kors på för att zooma in; den gröna knappen med ett streck på för att zooma ut; eller på de gröna pilarna för angränsande kartor.


METAR-TAF: